sensor_id;sensor_type;location;lat;lon;timestamp;P1;durP1;ratioP1;P2;durP2;ratioP2
69703;SDS011;56967;43.538;-5.646;2022-07-09T00:00:52;5.47;;;3.08;;
69703;SDS011;56967;43.538;-5.646;2022-07-09T00:03:19;12.68;;;3.42;;
69703;SDS011;56967;43.538;-5.646;2022-07-09T00:05:44;9.23;;;3.60;;
69703;SDS011;56967;43.538;-5.646;2022-07-09T00:08:10;6.88;;;3.20;;
69703;SDS011;56967;43.538;-5.646;2022-07-09T00:10:35;7.40;;;2.95;;
69703;SDS011;56967;43.538;-5.646;2022-07-09T00:13:00;7.60;;;3.63;;
69703;SDS011;56967;43.538;-5.646;2022-07-09T00:15:26;9.90;;;3.45;;
69703;SDS011;56967;43.538;-5.646;2022-07-09T00:17:51;10.43;;;3.50;;
69703;SDS011;56967;43.538;-5.646;2022-07-09T00:20:16;8.65;;;3.45;;
69703;SDS011;56967;43.538;-5.646;2022-07-09T00:22:42;6.78;;;2.97;;
69703;SDS011;56967;43.538;-5.646;2022-07-09T00:25:08;5.90;;;3.22;;
69703;SDS011;56967;43.538;-5.646;2022-07-09T00:27:33;9.98;;;3.47;;
69703;SDS011;56967;43.538;-5.646;2022-07-09T00:29:58;9.98;;;3.40;;
69703;SDS011;56967;43.538;-5.646;2022-07-09T00:32:24;9.75;;;3.33;;
69703;SDS011;56967;43.538;-5.646;2022-07-09T00:34:49;13.23;;;4.25;;
69703;SDS011;56967;43.538;-5.646;2022-07-09T00:37:14;5.22;;;3.10;;
69703;SDS011;56967;43.538;-5.646;2022-07-09T00:39:40;7.35;;;3.30;;
69703;SDS011;56967;43.538;-5.646;2022-07-09T00:42:09;11.30;;;3.78;;
69703;SDS011;56967;43.538;-5.646;2022-07-09T00:44:35;8.73;;;2.88;;
69703;SDS011;56967;43.538;-5.646;2022-07-09T00:47:01;8.27;;;3.67;;
69703;SDS011;56967;43.538;-5.646;2022-07-09T00:49:27;9.05;;;3.70;;
69703;SDS011;56967;43.538;-5.646;2022-07-09T00:51:53;9.30;;;3.33;;
69703;SDS011;56967;43.538;-5.646;2022-07-09T00:54:19;7.07;;;3.17;;
69703;SDS011;56967;43.538;-5.646;2022-07-09T00:56:44;9.20;;;2.70;;
69703;SDS011;56967;43.538;-5.646;2022-07-09T00:59:10;6.82;;;3.13;;
69703;SDS011;56967;43.538;-5.646;2022-07-09T01:01:37;10.27;;;3.60;;
69703;SDS011;56967;43.538;-5.646;2022-07-09T01:04:03;6.50;;;3.00;;
69703;SDS011;56967;43.538;-5.646;2022-07-09T01:06:29;8.07;;;3.42;;
69703;SDS011;56967;43.538;-5.646;2022-07-09T01:08:54;5.90;;;2.90;;
69703;SDS011;56967;43.538;-5.646;2022-07-09T01:11:19;7.80;;;3.20;;
69703;SDS011;56967;43.538;-5.646;2022-07-09T01:13:45;6.38;;;3.20;;
69703;SDS011;56967;43.538;-5.646;2022-07-09T01:16:11;8.27;;;3.47;;
69703;SDS011;56967;43.538;-5.646;2022-07-09T01:18:37;4.68;;;2.83;;
69703;SDS011;56967;43.538;-5.646;2022-07-09T01:21:02;8.65;;;3.08;;
69703;SDS011;56967;43.538;-5.646;2022-07-09T01:23:28;5.47;;;2.83;;
69703;SDS011;56967;43.538;-5.646;2022-07-09T01:25:53;7.72;;;2.88;;
69703;SDS011;56967;43.538;-5.646;2022-07-09T01:28:20;8.38;;;3.00;;
69703;SDS011;56967;43.538;-5.646;2022-07-09T01:30:46;10.10;;;3.30;;
69703;SDS011;56967;43.538;-5.646;2022-07-09T01:33:11;6.18;;;3.20;;
69703;SDS011;56967;43.538;-5.646;2022-07-09T01:35:38;6.50;;;2.85;;
69703;SDS011;56967;43.538;-5.646;2022-07-09T01:38:03;6.63;;;3.22;;
69703;SDS011;56967;43.538;-5.646;2022-07-09T01:40:28;7.80;;;3.33;;
69703;SDS011;56967;43.538;-5.646;2022-07-09T01:42:54;7.30;;;3.00;;
69703;SDS011;56967;43.538;-5.646;2022-07-09T01:45:19;7.60;;;3.60;;
69703;SDS011;56967;43.538;-5.646;2022-07-09T01:47:44;10.77;;;4.00;;
69703;SDS011;56967;43.538;-5.646;2022-07-09T01:50:10;5.70;;;3.60;;
69703;SDS011;56967;43.538;-5.646;2022-07-09T01:52:35;8.35;;;3.83;;
69703;SDS011;56967;43.538;-5.646;2022-07-09T01:55:01;10.27;;;4.15;;
69703;SDS011;56967;43.538;-5.646;2022-07-09T01:57:26;7.35;;;3.90;;
69703;SDS011;56967;43.538;-5.646;2022-07-09T01:59:52;7.00;;;3.50;;
69703;SDS011;56967;43.538;-5.646;2022-07-09T02:02:17;8.30;;;3.50;;
69703;SDS011;56967;43.538;-5.646;2022-07-09T02:04:43;7.57;;;3.67;;
69703;SDS011;56967;43.538;-5.646;2022-07-09T02:07:10;8.27;;;3.92;;
69703;SDS011;56967;43.538;-5.646;2022-07-09T02:09:35;6.97;;;3.70;;
69703;SDS011;56967;43.538;-5.646;2022-07-09T02:12:01;9.57;;;3.47;;
69703;SDS011;56967;43.538;-5.646;2022-07-09T02:14:26;7.85;;;3.70;;
69703;SDS011;56967;43.538;-5.646;2022-07-09T02:16:51;8.68;;;4.15;;
69703;SDS011;56967;43.538;-5.646;2022-07-09T02:19:16;10.30;;;4.07;;
69703;SDS011;56967;43.538;-5.646;2022-07-09T02:21:42;12.40;;;4.23;;
69703;SDS011;56967;43.538;-5.646;2022-07-09T02:24:07;5.28;;;3.45;;
69703;SDS011;56967;43.538;-5.646;2022-07-09T02:26:32;9.75;;;3.58;;
69703;SDS011;56967;43.538;-5.646;2022-07-09T02:28:58;8.43;;;3.50;;
69703;SDS011;56967;43.538;-5.646;2022-07-09T02:31:24;13.13;;;3.90;;
69703;SDS011;56967;43.538;-5.646;2022-07-09T02:33:49;9.82;;;4.88;;
69703;SDS011;56967;43.538;-5.646;2022-07-09T02:36:15;12.80;;;3.97;;
69703;SDS011;56967;43.538;-5.646;2022-07-09T02:38:40;15.18;;;4.00;;
69703;SDS011;56967;43.538;-5.646;2022-07-09T02:41:06;13.68;;;4.63;;
69703;SDS011;56967;43.538;-5.646;2022-07-09T02:43:31;10.90;;;3.92;;
69703;SDS011;56967;43.538;-5.646;2022-07-09T02:45:57;8.93;;;4.35;;
69703;SDS011;56967;43.538;-5.646;2022-07-09T02:48:23;8.95;;;4.15;;
69703;SDS011;56967;43.538;-5.646;2022-07-09T02:50:51;11.70;;;4.45;;
69703;SDS011;56967;43.538;-5.646;2022-07-09T02:53:17;9.70;;;4.05;;
69703;SDS011;56967;43.538;-5.646;2022-07-09T02:55:42;6.80;;;3.80;;
69703;SDS011;56967;43.538;-5.646;2022-07-09T02:58:07;6.68;;;3.58;;
69703;SDS011;56967;43.538;-5.646;2022-07-09T03:00:32;8.32;;;4.15;;
69703;SDS011;56967;43.538;-5.646;2022-07-09T03:02:58;7.70;;;4.25;;
69703;SDS011;56967;43.538;-5.646;2022-07-09T03:05:23;8.18;;;4.32;;
69703;SDS011;56967;43.538;-5.646;2022-07-09T03:07:49;6.13;;;3.85;;
69703;SDS011;56967;43.538;-5.646;2022-07-09T03:10:14;4.63;;;3.50;;
69703;SDS011;56967;43.538;-5.646;2022-07-09T03:12:40;5.65;;;3.65;;
69703;SDS011;56967;43.538;-5.646;2022-07-09T03:15:06;5.80;;;3.22;;
69703;SDS011;56967;43.538;-5.646;2022-07-09T03:17:31;13.70;;;4.00;;
69703;SDS011;56967;43.538;-5.646;2022-07-09T03:19:56;8.05;;;3.70;;
69703;SDS011;56967;43.538;-5.646;2022-07-09T03:22:22;6.95;;;3.70;;
69703;SDS011;56967;43.538;-5.646;2022-07-09T03:24:47;5.85;;;3.40;;
69703;SDS011;56967;43.538;-5.646;2022-07-09T03:27:12;8.48;;;3.70;;
69703;SDS011;56967;43.538;-5.646;2022-07-09T03:29:38;4.75;;;3.38;;
69703;SDS011;56967;43.538;-5.646;2022-07-09T03:32:03;9.55;;;3.92;;
69703;SDS011;56967;43.538;-5.646;2022-07-09T03:34:29;6.25;;;3.38;;
69703;SDS011;56967;43.538;-5.646;2022-07-09T03:36:54;4.25;;;3.22;;
69703;SDS011;56967;43.538;-5.646;2022-07-09T03:39:19;7.22;;;3.60;;
69703;SDS011;56967;43.538;-5.646;2022-07-09T03:41:45;4.57;;;3.25;;
69703;SDS011;56967;43.538;-5.646;2022-07-09T03:44:10;5.03;;;3.30;;
69703;SDS011;56967;43.538;-5.646;2022-07-09T03:46:35;8.13;;;3.75;;
69703;SDS011;56967;43.538;-5.646;2022-07-09T03:49:01;7.55;;;3.38;;
69703;SDS011;56967;43.538;-5.646;2022-07-09T03:51:26;5.22;;;3.20;;
69703;SDS011;56967;43.538;-5.646;2022-07-09T03:53:52;4.43;;;3.33;;
69703;SDS011;56967;43.538;-5.646;2022-07-09T03:56:17;6.60;;;3.90;;
69703;SDS011;56967;43.538;-5.646;2022-07-09T03:58:45;8.05;;;3.28;;
69703;SDS011;56967;43.538;-5.646;2022-07-09T04:01:10;4.45;;;3.38;;
69703;SDS011;56967;43.538;-5.646;2022-07-09T04:03:35;5.25;;;3.42;;
69703;SDS011;56967;43.538;-5.646;2022-07-09T04:06:01;5.75;;;3.40;;
69703;SDS011;56967;43.538;-5.646;2022-07-09T04:08:26;5.75;;;3.35;;
69703;SDS011;56967;43.538;-5.646;2022-07-09T04:10:51;4.80;;;3.33;;
69703;SDS011;56967;43.538;-5.646;2022-07-09T04:13:17;7.50;;;3.47;;
69703;SDS011;56967;43.538;-5.646;2022-07-09T04:15:42;6.03;;;3.35;;
69703;SDS011;56967;43.538;-5.646;2022-07-09T04:18:07;7.50;;;3.30;;
69703;SDS011;56967;43.538;-5.646;2022-07-09T04:20:33;6.93;;;3.78;;
69703;SDS011;56967;43.538;-5.646;2022-07-09T04:22:58;5.97;;;3.53;;
69703;SDS011;56967;43.538;-5.646;2022-07-09T04:25:23;4.65;;;3.22;;
69703;SDS011;56967;43.538;-5.646;2022-07-09T04:27:49;5.25;;;3.38;;
69703;SDS011;56967;43.538;-5.646;2022-07-09T04:30:14;5.43;;;3.00;;
69703;SDS011;56967;43.538;-5.646;2022-07-09T04:32:39;7.45;;;3.30;;
69703;SDS011;56967;43.538;-5.646;2022-07-09T04:35:05;5.05;;;3.47;;
69703;SDS011;56967;43.538;-5.646;2022-07-09T04:37:30;5.72;;;3.17;;
69703;SDS011;56967;43.538;-5.646;2022-07-09T04:39:55;7.18;;;3.38;;
69703;SDS011;56967;43.538;-5.646;2022-07-09T04:42:21;5.30;;;3.15;;
69703;SDS011;56967;43.538;-5.646;2022-07-09T04:44:46;9.07;;;3.83;;
69703;SDS011;56967;43.538;-5.646;2022-07-09T04:47:12;5.63;;;3.40;;
69703;SDS011;56967;43.538;-5.646;2022-07-09T04:49:37;8.88;;;3.75;;
69703;SDS011;56967;43.538;-5.646;2022-07-09T04:52:03;6.38;;;3.90;;
69703;SDS011;56967;43.538;-5.646;2022-07-09T04:54:28;4.93;;;3.60;;
69703;SDS011;56967;43.538;-5.646;2022-07-09T04:56:53;7.13;;;3.90;;
69703;SDS011;56967;43.538;-5.646;2022-07-09T04:59:19;7.50;;;4.07;;
69703;SDS011;56967;43.538;-5.646;2022-07-09T05:01:44;6.10;;;4.18;;
69703;SDS011;56967;43.538;-5.646;2022-07-09T05:04:09;6.78;;;4.10;;
69703;SDS011;56967;43.538;-5.646;2022-07-09T05:06:35;6.03;;;4.35;;
69703;SDS011;56967;43.538;-5.646;2022-07-09T05:09:00;7.25;;;4.38;;
69703;SDS011;56967;43.538;-5.646;2022-07-09T05:11:25;8.73;;;4.70;;
69703;SDS011;56967;43.538;-5.646;2022-07-09T05:13:51;8.55;;;4.68;;
69703;SDS011;56967;43.538;-5.646;2022-07-09T05:16:16;9.57;;;5.65;;
69703;SDS011;56967;43.538;-5.646;2022-07-09T05:18:42;10.77;;;4.72;;
69703;SDS011;56967;43.538;-5.646;2022-07-09T05:21:07;7.00;;;5.20;;
69703;SDS011;56967;43.538;-5.646;2022-07-09T05:23:33;6.15;;;4.78;;
69703;SDS011;56967;43.538;-5.646;2022-07-09T05:25:58;9.38;;;5.28;;
69703;SDS011;56967;43.538;-5.646;2022-07-09T05:28:23;9.35;;;5.10;;
69703;SDS011;56967;43.538;-5.646;2022-07-09T05:30:49;12.10;;;5.63;;
69703;SDS011;56967;43.538;-5.646;2022-07-09T05:33:14;9.18;;;4.95;;
69703;SDS011;56967;43.538;-5.646;2022-07-09T05:35:39;9.90;;;4.05;;
69703;SDS011;56967;43.538;-5.646;2022-07-09T05:38:05;4.20;;;3.50;;
69703;SDS011;56967;43.538;-5.646;2022-07-09T05:40:30;7.10;;;3.47;;
69703;SDS011;56967;43.538;-5.646;2022-07-09T05:42:56;4.20;;;2.83;;
69703;SDS011;56967;43.538;-5.646;2022-07-09T05:45:21;4.68;;;3.00;;
69703;SDS011;56967;43.538;-5.646;2022-07-09T05:47:46;4.70;;;2.67;;
69703;SDS011;56967;43.538;-5.646;2022-07-09T05:50:12;4.03;;;2.70;;
69703;SDS011;56967;43.538;-5.646;2022-07-09T05:52:37;3.90;;;2.33;;
69703;SDS011;56967;43.538;-5.646;2022-07-09T05:55:03;4.77;;;2.60;;
69703;SDS011;56967;43.538;-5.646;2022-07-09T05:57:28;5.80;;;2.80;;
69703;SDS011;56967;43.538;-5.646;2022-07-09T05:59:53;3.92;;;3.03;;
69703;SDS011;56967;43.538;-5.646;2022-07-09T06:02:19;6.80;;;2.30;;
69703;SDS011;56967;43.538;-5.646;2022-07-09T06:04:44;4.30;;;3.25;;
69703;SDS011;56967;43.538;-5.646;2022-07-09T06:07:10;4.93;;;2.70;;
69703;SDS011;56967;43.538;-5.646;2022-07-09T06:09:35;3.90;;;2.90;;
69703;SDS011;56967;43.538;-5.646;2022-07-09T06:12:01;3.67;;;2.30;;
69703;SDS011;56967;43.538;-5.646;2022-07-09T06:14:26;3.20;;;2.57;;
69703;SDS011;56967;43.538;-5.646;2022-07-09T06:16:51;4.63;;;2.42;;
69703;SDS011;56967;43.538;-5.646;2022-07-09T06:19:19;3.88;;;2.40;;
69703;SDS011;56967;43.538;-5.646;2022-07-09T06:21:44;3.25;;;2.40;;
69703;SDS011;56967;43.538;-5.646;2022-07-09T06:24:10;3.28;;;2.30;;
69703;SDS011;56967;43.538;-5.646;2022-07-09T06:26:36;3.70;;;2.60;;
69703;SDS011;56967;43.538;-5.646;2022-07-09T06:29:01;3.40;;;2.70;;
69703;SDS011;56967;43.538;-5.646;2022-07-09T06:31:26;4.57;;;2.55;;
69703;SDS011;56967;43.538;-5.646;2022-07-09T06:33:52;4.23;;;2.70;;
69703;SDS011;56967;43.538;-5.646;2022-07-09T06:36:17;4.90;;;3.00;;
69703;SDS011;56967;43.538;-5.646;2022-07-09T06:38:42;3.03;;;2.40;;
69703;SDS011;56967;43.538;-5.646;2022-07-09T06:41:26;3.80;;;2.90;;
69703;SDS011;56967;43.538;-5.646;2022-07-09T06:43:52;6.28;;;2.67;;
69703;SDS011;56967;43.538;-5.646;2022-07-09T06:46:18;4.45;;;2.90;;
69703;SDS011;56967;43.538;-5.646;2022-07-09T06:48:43;3.33;;;3.03;;
69703;SDS011;56967;43.538;-5.646;2022-07-09T06:51:08;5.43;;;3.17;;
69703;SDS011;56967;43.538;-5.646;2022-07-09T06:53:34;4.43;;;3.30;;
69703;SDS011;56967;43.538;-5.646;2022-07-09T06:55:59;4.13;;;3.20;;
69703;SDS011;56967;43.538;-5.646;2022-07-09T06:58:24;3.97;;;3.57;;
69703;SDS011;56967;43.538;-5.646;2022-07-09T07:00:50;7.20;;;4.50;;
69703;SDS011;56967;43.538;-5.646;2022-07-09T07:03:15;5.40;;;4.38;;
69703;SDS011;56967;43.538;-5.646;2022-07-09T07:05:40;7.07;;;4.67;;
69703;SDS011;56967;43.538;-5.646;2022-07-09T07:08:06;6.37;;;4.93;;
69703;SDS011;56967;43.538;-5.646;2022-07-09T07:10:31;6.22;;;4.35;;
69703;SDS011;56967;43.538;-5.646;2022-07-09T07:12:57;5.77;;;4.37;;
69703;SDS011;56967;43.538;-5.646;2022-07-09T07:15:22;5.50;;;4.80;;
69703;SDS011;56967;43.538;-5.646;2022-07-09T07:17:47;5.20;;;4.70;;
69703;SDS011;56967;43.538;-5.646;2022-07-09T07:20:14;4.90;;;4.18;;
69703;SDS011;56967;43.538;-5.646;2022-07-09T07:22:39;5.70;;;5.20;;
69703;SDS011;56967;43.538;-5.646;2022-07-09T07:25:05;5.30;;;4.80;;
69703;SDS011;56967;43.538;-5.646;2022-07-09T07:27:30;7.40;;;5.57;;
69703;SDS011;56967;43.538;-5.646;2022-07-09T07:29:55;5.60;;;5.10;;
69703;SDS011;56967;43.538;-5.646;2022-07-09T07:32:21;6.23;;;5.67;;
69703;SDS011;56967;43.538;-5.646;2022-07-09T07:34:46;4.90;;;4.20;;
69703;SDS011;56967;43.538;-5.646;2022-07-09T07:37:11;5.37;;;4.57;;
69703;SDS011;56967;43.538;-5.646;2022-07-09T07:39:37;4.60;;;4.20;;
69703;SDS011;56967;43.538;-5.646;2022-07-09T07:42:02;6.53;;;4.60;;
69703;SDS011;56967;43.538;-5.646;2022-07-09T07:44:28;5.88;;;5.05;;
69703;SDS011;56967;43.538;-5.646;2022-07-09T07:46:54;6.13;;;4.72;;
69703;SDS011;56967;43.538;-5.646;2022-07-09T07:49:19;5.47;;;4.70;;
69703;SDS011;56967;43.538;-5.646;2022-07-09T07:51:45;5.38;;;4.07;;
69703;SDS011;56967;43.538;-5.646;2022-07-09T07:54:10;4.72;;;3.85;;
69703;SDS011;56967;43.538;-5.646;2022-07-09T07:56:36;4.73;;;3.97;;
69703;SDS011;56967;43.538;-5.646;2022-07-09T07:59:03;4.75;;;4.18;;
69703;SDS011;56967;43.538;-5.646;2022-07-09T08:01:28;6.93;;;3.90;;
69703;SDS011;56967;43.538;-5.646;2022-07-09T08:03:54;4.73;;;3.80;;
69703;SDS011;56967;43.538;-5.646;2022-07-09T08:06:19;4.50;;;4.10;;
69703;SDS011;56967;43.538;-5.646;2022-07-09T08:08:47;4.90;;;3.60;;
69703;SDS011;56967;43.538;-5.646;2022-07-09T08:11:12;4.10;;;3.70;;
69703;SDS011;56967;43.538;-5.646;2022-07-09T08:13:37;4.27;;;3.30;;
69703;SDS011;56967;43.538;-5.646;2022-07-09T08:16:04;5.00;;;3.50;;
69703;SDS011;56967;43.538;-5.646;2022-07-09T08:18:30;4.53;;;3.65;;
69703;SDS011;56967;43.538;-5.646;2022-07-09T08:20:55;4.72;;;4.00;;
69703;SDS011;56967;43.538;-5.646;2022-07-09T08:23:21;6.82;;;4.18;;
69703;SDS011;56967;43.538;-5.646;2022-07-09T08:25:49;4.45;;;3.60;;
69703;SDS011;56967;43.538;-5.646;2022-07-09T08:28:15;4.95;;;3.53;;
69703;SDS011;56967;43.538;-5.646;2022-07-09T08:30:40;4.88;;;3.60;;
69703;SDS011;56967;43.538;-5.646;2022-07-09T08:33:06;3.90;;;3.53;;
69703;SDS011;56967;43.538;-5.646;2022-07-09T08:35:31;6.60;;;3.90;;
69703;SDS011;56967;43.538;-5.646;2022-07-09T08:37:57;4.77;;;3.20;;
69703;SDS011;56967;43.538;-5.646;2022-07-09T08:40:24;6.78;;;3.72;;
69703;SDS011;56967;43.538;-5.646;2022-07-09T08:42:50;5.70;;;3.50;;
69703;SDS011;56967;43.538;-5.646;2022-07-09T08:45:16;7.75;;;3.50;;
69703;SDS011;56967;43.538;-5.646;2022-07-09T08:47:41;5.20;;;3.80;;
69703;SDS011;56967;43.538;-5.646;2022-07-09T08:50:07;5.10;;;3.92;;
69703;SDS011;56967;43.538;-5.646;2022-07-09T08:52:33;4.60;;;3.78;;
69703;SDS011;56967;43.538;-5.646;2022-07-09T08:55:00;6.25;;;3.90;;
69703;SDS011;56967;43.538;-5.646;2022-07-09T08:57:26;7.63;;;3.70;;
69703;SDS011;56967;43.538;-5.646;2022-07-09T08:59:51;5.03;;;3.73;;
69703;SDS011;56967;43.538;-5.646;2022-07-09T09:02:17;4.30;;;3.53;;
69703;SDS011;56967;43.538;-5.646;2022-07-09T09:04:45;5.00;;;3.72;;
69703;SDS011;56967;43.538;-5.646;2022-07-09T09:07:17;8.77;;;3.93;;
69703;SDS011;56967;43.538;-5.646;2022-07-09T09:09:43;4.65;;;3.03;;
69703;SDS011;56967;43.538;-5.646;2022-07-09T09:12:08;4.50;;;3.25;;
69703;SDS011;56967;43.538;-5.646;2022-07-09T09:14:34;4.30;;;3.30;;
69703;SDS011;56967;43.538;-5.646;2022-07-09T09:17:06;4.75;;;3.20;;
69703;SDS011;56967;43.538;-5.646;2022-07-09T09:19:34;8.32;;;3.25;;
69703;SDS011;56967;43.538;-5.646;2022-07-09T09:21:59;8.20;;;3.10;;
69703;SDS011;56967;43.538;-5.646;2022-07-09T09:24:25;4.50;;;2.80;;
69703;SDS011;56967;43.538;-5.646;2022-07-09T09:26:51;7.25;;;2.70;;
69703;SDS011;56967;43.538;-5.646;2022-07-09T09:29:16;5.87;;;3.30;;
69703;SDS011;56967;43.538;-5.646;2022-07-09T09:31:44;9.97;;;3.50;;
69703;SDS011;56967;43.538;-5.646;2022-07-09T09:34:11;29.58;;;4.22;;
69703;SDS011;56967;43.538;-5.646;2022-07-09T09:36:37;3.92;;;1.95;;
69703;SDS011;56967;43.538;-5.646;2022-07-09T09:39:22;5.45;;;1.90;;
69703;SDS011;56967;43.538;-5.646;2022-07-09T09:41:52;9.20;;;2.15;;
69703;SDS011;56967;43.538;-5.646;2022-07-09T09:44:22;5.25;;;1.60;;
69703;SDS011;56967;43.538;-5.646;2022-07-09T09:46:49;5.32;;;1.70;;
69703;SDS011;56967;43.538;-5.646;2022-07-09T09:49:15;5.43;;;1.80;;
69703;SDS011;56967;43.538;-5.646;2022-07-09T09:51:51;5.93;;;1.88;;
69703;SDS011;56967;43.538;-5.646;2022-07-09T09:54:17;10.25;;;2.20;;
69703;SDS011;56967;43.538;-5.646;2022-07-09T09:56:43;5.93;;;2.28;;
69703;SDS011;56967;43.538;-5.646;2022-07-09T09:59:09;3.90;;;1.80;;
69703;SDS011;56967;43.538;-5.646;2022-07-09T10:01:34;7.07;;;2.15;;
69703;SDS011;56967;43.538;-5.646;2022-07-09T10:04:00;5.85;;;2.05;;
69703;SDS011;56967;43.538;-5.646;2022-07-09T10:06:25;8.57;;;2.10;;
69703;SDS011;56967;43.538;-5.646;2022-07-09T10:08:52;7.15;;;2.35;;
69703;SDS011;56967;43.538;-5.646;2022-07-09T10:11:17;14.38;;;2.55;;
69703;SDS011;56967;43.538;-5.646;2022-07-09T10:13:49;6.68;;;2.00;;
69703;SDS011;56967;43.538;-5.646;2022-07-09T10:16:15;5.18;;;2.17;;
69703;SDS011;56967;43.538;-5.646;2022-07-09T10:18:49;7.73;;;2.27;;
69703;SDS011;56967;43.538;-5.646;2022-07-09T10:21:15;5.50;;;2.30;;
69703;SDS011;56967;43.538;-5.646;2022-07-09T10:23:48;9.60;;;2.67;;
69703;SDS011;56967;43.538;-5.646;2022-07-09T10:26:13;7.05;;;2.58;;
69703;SDS011;56967;43.538;-5.646;2022-07-09T10:28:41;7.70;;;2.45;;
69703;SDS011;56967;43.538;-5.646;2022-07-09T10:31:07;8.63;;;2.47;;
69703;SDS011;56967;43.538;-5.646;2022-07-09T10:33:33;7.60;;;3.05;;
69703;SDS011;56967;43.538;-5.646;2022-07-09T10:36:08;9.80;;;2.90;;
69703;SDS011;56967;43.538;-5.646;2022-07-09T10:38:34;10.13;;;3.70;;
69703;SDS011;56967;43.538;-5.646;2022-07-09T10:41:01;16.67;;;2.90;;
69703;SDS011;56967;43.538;-5.646;2022-07-09T10:43:40;8.90;;;2.90;;
69703;SDS011;56967;43.538;-5.646;2022-07-09T10:46:09;14.63;;;3.63;;
69703;SDS011;56967;43.538;-5.646;2022-07-09T10:48:35;6.97;;;3.20;;
69703;SDS011;56967;43.538;-5.646;2022-07-09T10:51:00;7.85;;;3.15;;
69703;SDS011;56967;43.538;-5.646;2022-07-09T10:53:28;8.48;;;3.13;;
69703;SDS011;56967;43.538;-5.646;2022-07-09T10:55:54;9.75;;;3.53;;
69703;SDS011;56967;43.538;-5.646;2022-07-09T10:58:20;15.98;;;3.60;;
69703;SDS011;56967;43.538;-5.646;2022-07-09T11:00:53;11.75;;;3.78;;
69703;SDS011;56967;43.538;-5.646;2022-07-09T11:03:23;9.00;;;4.03;;
69703;SDS011;56967;43.538;-5.646;2022-07-09T11:05:49;12.65;;;3.85;;
69703;SDS011;56967;43.538;-5.646;2022-07-09T11:08:14;11.70;;;3.90;;
69703;SDS011;56967;43.538;-5.646;2022-07-09T11:10:39;9.60;;;4.00;;
69703;SDS011;56967;43.538;-5.646;2022-07-09T11:13:05;9.27;;;3.85;;
69703;SDS011;56967;43.538;-5.646;2022-07-09T11:15:32;10.50;;;3.78;;
69703;SDS011;56967;43.538;-5.646;2022-07-09T11:18:07;9.85;;;4.18;;
69703;SDS011;56967;43.538;-5.646;2022-07-09T11:20:37;8.30;;;3.53;;
69703;SDS011;56967;43.538;-5.646;2022-07-09T11:23:03;11.30;;;3.80;;
69703;SDS011;56967;43.538;-5.646;2022-07-09T11:25:29;9.47;;;3.90;;
69703;SDS011;56967;43.538;-5.646;2022-07-09T11:27:58;9.40;;;3.72;;
69703;SDS011;56967;43.538;-5.646;2022-07-09T11:30:24;7.03;;;3.78;;
69703;SDS011;56967;43.538;-5.646;2022-07-09T11:32:49;8.57;;;3.50;;
69703;SDS011;56967;43.538;-5.646;2022-07-09T11:35:28;9.38;;;3.58;;
69703;SDS011;56967;43.538;-5.646;2022-07-09T11:37:54;10.20;;;3.10;;
69703;SDS011;56967;43.538;-5.646;2022-07-09T11:40:19;5.35;;;3.38;;
69703;SDS011;56967;43.538;-5.646;2022-07-09T11:42:45;6.18;;;2.88;;
69703;SDS011;56967;43.538;-5.646;2022-07-09T11:45:10;9.45;;;3.45;;
69703;SDS011;56967;43.538;-5.646;2022-07-09T11:47:37;8.27;;;3.00;;
69703;SDS011;56967;43.538;-5.646;2022-07-09T11:50:08;5.50;;;2.80;;
69703;SDS011;56967;43.538;-5.646;2022-07-09T11:52:33;7.72;;;2.83;;
69703;SDS011;56967;43.538;-5.646;2022-07-09T11:57:31;6.93;;;2.50;;
69703;SDS011;56967;43.538;-5.646;2022-07-09T11:59:56;7.80;;;2.55;;
69703;SDS011;56967;43.538;-5.646;2022-07-09T12:02:22;8.57;;;2.30;;
69703;SDS011;56967;43.538;-5.646;2022-07-09T12:04:48;6.40;;;2.53;;
69703;SDS011;56967;43.538;-5.646;2022-07-09T12:07:13;5.32;;;2.30;;
69703;SDS011;56967;43.538;-5.646;2022-07-09T12:09:38;6.07;;;2.30;;
69703;SDS011;56967;43.538;-5.646;2022-07-09T12:12:04;6.22;;;2.60;;
69703;SDS011;56967;43.538;-5.646;2022-07-09T12:14:29;6.10;;;2.78;;
69703;SDS011;56967;43.538;-5.646;2022-07-09T12:16:56;8.90;;;2.85;;
69703;SDS011;56967;43.538;-5.646;2022-07-09T12:19:21;8.85;;;2.40;;
69703;SDS011;56967;43.538;-5.646;2022-07-09T12:21:47;6.68;;;2.67;;
69703;SDS011;56967;43.538;-5.646;2022-07-09T12:24:12;7.90;;;2.65;;
69703;SDS011;56967;43.538;-5.646;2022-07-09T12:26:38;5.68;;;2.72;;
69703;SDS011;56967;43.538;-5.646;2022-07-09T12:29:03;8.48;;;3.25;;
69703;SDS011;56967;43.538;-5.646;2022-07-09T12:31:28;7.67;;;2.73;;
69703;SDS011;56967;43.538;-5.646;2022-07-09T12:33:54;7.55;;;3.05;;
69703;SDS011;56967;43.538;-5.646;2022-07-09T12:36:19;11.63;;;3.22;;
69703;SDS011;56967;43.538;-5.646;2022-07-09T12:38:44;8.95;;;3.28;;
69703;SDS011;56967;43.538;-5.646;2022-07-09T12:41:10;4.70;;;2.80;;
69703;SDS011;56967;43.538;-5.646;2022-07-09T12:43:35;7.73;;;3.00;;
69703;SDS011;56967;43.538;-5.646;2022-07-09T12:46:00;11.93;;;2.80;;
69703;SDS011;56967;43.538;-5.646;2022-07-09T12:48:26;6.63;;;2.65;;
69703;SDS011;56967;43.538;-5.646;2022-07-09T12:50:51;8.93;;;2.70;;
69703;SDS011;56967;43.538;-5.646;2022-07-09T12:53:17;4.78;;;2.90;;
69703;SDS011;56967;43.538;-5.646;2022-07-09T12:55:42;7.03;;;2.92;;
69703;SDS011;56967;43.538;-5.646;2022-07-09T12:58:07;9.55;;;3.20;;
69703;SDS011;56967;43.538;-5.646;2022-07-09T13:00:33;9.38;;;3.10;;
69703;SDS011;56967;43.538;-5.646;2022-07-09T13:02:58;8.02;;;2.90;;
69703;SDS011;56967;43.538;-5.646;2022-07-09T13:05:23;8.32;;;3.25;;
69703;SDS011;56967;43.538;-5.646;2022-07-09T13:07:49;10.32;;;3.25;;
69703;SDS011;56967;43.538;-5.646;2022-07-09T13:10:14;7.18;;;2.58;;
69703;SDS011;56967;43.538;-5.646;2022-07-09T13:12:39;8.65;;;2.90;;
69703;SDS011;56967;43.538;-5.646;2022-07-09T13:15:05;10.57;;;3.10;;
69703;SDS011;56967;43.538;-5.646;2022-07-09T13:17:30;8.30;;;2.80;;
69703;SDS011;56967;43.538;-5.646;2022-07-09T13:19:56;7.88;;;2.95;;
69703;SDS011;56967;43.538;-5.646;2022-07-09T13:22:21;5.80;;;2.67;;
69703;SDS011;56967;43.538;-5.646;2022-07-09T13:24:46;11.88;;;3.25;;
69703;SDS011;56967;43.538;-5.646;2022-07-09T13:27:12;9.55;;;2.67;;
69703;SDS011;56967;43.538;-5.646;2022-07-09T13:29:38;7.03;;;2.67;;
69703;SDS011;56967;43.538;-5.646;2022-07-09T13:32:04;10.80;;;3.08;;
69703;SDS011;56967;43.538;-5.646;2022-07-09T13:34:30;5.50;;;2.35;;
69703;SDS011;56967;43.538;-5.646;2022-07-09T13:36:55;9.80;;;2.95;;
69703;SDS011;56967;43.538;-5.646;2022-07-09T13:39:20;8.00;;;2.63;;
69703;SDS011;56967;43.538;-5.646;2022-07-09T13:41:46;7.77;;;2.70;;
69703;SDS011;56967;43.538;-5.646;2022-07-09T13:44:11;7.20;;;2.30;;
69703;SDS011;56967;43.538;-5.646;2022-07-09T13:46:36;9.80;;;2.50;;
69703;SDS011;56967;43.538;-5.646;2022-07-09T13:49:02;10.63;;;2.67;;
69703;SDS011;56967;43.538;-5.646;2022-07-09T13:51:27;8.18;;;2.40;;
69703;SDS011;56967;43.538;-5.646;2022-07-09T13:53:52;6.88;;;2.45;;
69703;SDS011;56967;43.538;-5.646;2022-07-09T13:56:18;6.68;;;2.15;;
69703;SDS011;56967;43.538;-5.646;2022-07-09T13:58:43;12.23;;;2.50;;
69703;SDS011;56967;43.538;-5.646;2022-07-09T14:01:08;8.73;;;2.55;;
69703;SDS011;56967;43.538;-5.646;2022-07-09T14:03:34;8.55;;;2.40;;
69703;SDS011;56967;43.538;-5.646;2022-07-09T14:05:59;13.10;;;2.30;;
69703;SDS011;56967;43.538;-5.646;2022-07-09T14:08:24;6.60;;;2.30;;
69703;SDS011;56967;43.538;-5.646;2022-07-09T14:10:52;9.18;;;2.55;;
69703;SDS011;56967;43.538;-5.646;2022-07-09T14:13:23;7.93;;;2.40;;
69703;SDS011;56967;43.538;-5.646;2022-07-09T14:15:48;11.02;;;2.38;;
69703;SDS011;56967;43.538;-5.646;2022-07-09T14:18:14;8.75;;;2.25;;
69703;SDS011;56967;43.538;-5.646;2022-07-09T14:20:39;10.57;;;2.53;;
69703;SDS011;56967;43.538;-5.646;2022-07-09T14:23:04;6.07;;;2.38;;
69703;SDS011;56967;43.538;-5.646;2022-07-09T14:25:30;11.67;;;2.17;;
69703;SDS011;56967;43.538;-5.646;2022-07-09T14:27:55;8.77;;;2.55;;